createdAt,value
2019-02-28T00:02:31.874Z,9.60
2019-02-28T00:04:59.221Z,9.60
2019-02-28T00:07:26.615Z,9.50
2019-02-28T00:10:13.479Z,9.40
2019-02-28T00:12:40.822Z,8.70
2019-02-28T00:15:08.163Z,9.30
2019-02-28T00:17:35.502Z,9.30
2019-02-28T00:20:02.885Z,9.20
2019-02-28T00:22:30.260Z,9.20
2019-02-28T00:25:17.383Z,9.20
2019-02-28T00:27:46.272Z,8.80
2019-02-28T00:30:13.670Z,9.20
2019-02-28T00:32:41.022Z,9.20
2019-02-28T00:35:27.790Z,9.20
2019-02-28T00:37:56.658Z,8.90
2019-02-28T00:40:24.479Z,9.20
2019-02-28T00:42:51.811Z,9.20
2019-02-28T00:45:19.192Z,9.10
2019-02-28T00:47:47.559Z,9.10
2019-02-28T00:50:15.768Z,9.00
2019-02-28T00:52:43.104Z,9.00
2019-02-28T00:55:29.877Z,9.00
2019-02-28T00:57:57.274Z,8.70
2019-02-28T01:00:24.656Z,9.00
2019-02-28T01:02:53.299Z,9.00
2019-02-28T01:05:21.271Z,9.00
2019-02-28T01:08:08.160Z,9.00
2019-02-28T01:10:39.269Z,8.30
2019-02-28T01:13:04.736Z,9.00
2019-02-28T01:15:32.069Z,8.90
2019-02-28T01:18:00.502Z,8.90
2019-02-28T01:20:28.664Z,8.90
2019-02-28T01:22:58.553Z,8.90
2019-02-28T01:25:25.305Z,8.80
2019-02-28T01:27:53.097Z,8.70
2019-02-28T01:30:20.703Z,8.70
2019-02-28T01:33:07.542Z,8.70
2019-02-28T01:35:40.461Z,8.00
2019-02-28T01:38:24.220Z,8.80
2019-02-28T01:43:51.007Z,8.50
2019-02-28T01:46:18.309Z,8.40
2019-02-28T01:49:05.092Z,8.60
2019-02-28T01:51:36.587Z,8.30
2019-02-28T01:54:01.850Z,8.60
2019-02-28T01:56:29.201Z,8.50
2019-02-28T01:58:56.524Z,8.50
2019-02-28T02:01:23.898Z,8.50
2019-02-28T02:03:51.224Z,8.60
2019-02-28T02:06:18.589Z,8.90
2019-02-28T02:08:45.918Z,8.50
2019-02-28T02:11:13.283Z,8.50
2019-02-28T02:14:00.149Z,8.50
2019-02-28T02:16:27.892Z,8.40
2019-02-28T02:18:55.374Z,8.50
2019-02-28T02:21:42.271Z,8.50
2019-02-28T02:24:09.719Z,8.10
2019-02-28T02:26:37.034Z,8.70
2019-02-28T02:29:04.458Z,8.70
2019-02-28T02:31:31.807Z,8.70
2019-02-28T02:33:59.206Z,8.60
2019-02-28T02:36:26.561Z,8.60
2019-02-28T02:38:53.950Z,8.60
2019-02-28T02:41:21.267Z,8.50
2019-02-28T02:44:08.065Z,8.50
2019-02-28T02:46:35.481Z,8.30
2019-02-28T02:49:02.848Z,8.50
2019-02-28T02:51:30.207Z,8.40
2019-02-28T02:53:57.511Z,8.40
2019-02-28T02:56:24.804Z,8.40
2019-02-28T02:58:52.135Z,8.40
2019-02-28T03:01:23.257Z,8.30
2019-02-28T03:03:48.702Z,8.20
2019-02-28T03:06:16.124Z,8.10
2019-02-28T03:08:43.527Z,8.20
2019-02-28T03:11:10.831Z,8.20
2019-02-28T03:13:57.715Z,8.20
2019-02-28T03:19:09.867Z,8.00
2019-02-28T03:21:39.172Z,8.40
2019-02-28T03:24:06.495Z,8.50
2019-02-28T03:26:33.851Z,8.50
2019-02-28T03:29:07.490Z,8.40
2019-02-28T03:31:30.498Z,8.40
2019-02-28T03:34:10.282Z,8.40
2019-02-28T03:36:55.157Z,8.20
2019-02-28T03:39:35.405Z,7.50
2019-02-28T03:42:02.783Z,7.80
2019-02-28T03:44:30.116Z,8.20
2019-02-28T03:46:57.527Z,8.10
2019-02-28T03:49:48.530Z,8.10
2019-02-28T03:52:13.611Z,7.80
2019-02-28T03:54:40.932Z,8.00
2019-02-28T03:57:08.226Z,8.00
2019-02-28T03:59:35.668Z,8.00
2019-02-28T04:02:03.115Z,8.00
2019-02-28T04:04:50.435Z,8.00
2019-02-28T04:07:17.944Z,7.80
2019-02-28T04:09:45.427Z,8.00
2019-02-28T04:12:12.919Z,8.00
2019-02-28T04:14:40.520Z,7.90
2019-02-28T04:17:07.860Z,7.90
2019-02-28T04:19:35.160Z,7.90
2019-02-28T04:22:02.509Z,7.90
2019-02-28T04:24:29.817Z,7.90
2019-02-28T04:27:16.602Z,7.90
2019-02-28T04:29:43.930Z,7.80
2019-02-28T04:32:30.712Z,7.90
2019-02-28T04:34:58.148Z,7.30
2019-02-28T04:37:26.559Z,7.90
2019-02-28T04:39:54.158Z,7.80
2019-02-28T04:42:21.491Z,7.80
2019-02-28T04:45:08.635Z,7.80
2019-02-28T04:47:37.196Z,7.10
2019-02-28T04:50:24.731Z,7.70
2019-02-28T04:55:37.165Z,7.40
2019-02-28T04:58:05.357Z,7.70
2019-02-28T05:00:32.734Z,7.70
2019-02-28T05:03:00.179Z,7.70
2019-02-28T05:05:27.498Z,7.70
2019-02-28T05:07:54.804Z,6.90
2019-02-28T05:10:41.598Z,7.70
2019-02-28T05:13:11.442Z,7.20
2019-02-28T05:15:40.927Z,7.70
2019-02-28T05:18:07.571Z,7.70
2019-02-28T05:20:35.003Z,7.70
2019-02-28T05:23:02.947Z,7.70
2019-02-28T05:25:30.556Z,7.70
2019-02-28T05:27:57.850Z,7.60
2019-02-28T05:30:25.211Z,7.50
2019-02-28T05:32:52.578Z,7.60
2019-02-28T05:35:25.157Z,7.60
2019-02-28T05:37:49.190Z,7.50
2019-02-28T05:40:16.495Z,7.50
2019-02-28T05:42:43.813Z,7.50
2019-02-28T05:45:29.796Z,7.60
2019-02-28T05:50:55.120Z,7.30
2019-02-28T05:53:22.569Z,6.90
2019-02-28T05:55:49.958Z,7.60
2019-02-28T05:58:18.418Z,7.60
2019-02-28T06:00:45.994Z,7.50
2019-02-28T06:03:13.299Z,7.60
2019-02-28T06:05:43.503Z,7.60
2019-02-28T06:08:29.336Z,7.60
2019-02-28T06:11:00.695Z,7.30
2019-02-28T06:13:26.002Z,7.70
2019-02-28T06:15:53.378Z,7.70
2019-02-28T06:18:20.807Z,7.70
2019-02-28T06:21:07.576Z,7.70
2019-02-28T06:23:35.007Z,7.50
2019-02-28T06:26:02.443Z,7.70
2019-02-28T06:28:31.017Z,7.70
2019-02-28T06:31:00.210Z,7.80
2019-02-28T06:33:30.526Z,7.70
2019-02-28T06:35:57.249Z,7.80
2019-02-28T06:38:24.650Z,7.80
2019-02-28T06:40:51.991Z,7.80
2019-02-28T06:43:19.603Z,7.90
2019-02-28T06:45:47.142Z,7.90
2019-02-28T06:48:14.484Z,7.90
2019-02-28T06:50:44.702Z,7.90
2019-02-28T06:53:11.145Z,7.90
2019-02-28T06:55:47.110Z,7.90
2019-02-28T06:58:34.123Z,7.90
2019-02-28T07:01:01.503Z,7.60
2019-02-28T07:03:28.824Z,7.90
2019-02-28T07:05:57.627Z,7.90
2019-02-28T07:08:28.801Z,8.10
2019-02-28T07:10:54.758Z,8.00
2019-02-28T07:13:22.104Z,8.10
2019-02-28T07:15:49.511Z,8.20
2019-02-28T07:18:18.874Z,8.30
2019-02-28T07:20:47.206Z,8.30
2019-02-28T07:23:14.820Z,8.40
2019-02-28T07:25:44.308Z,8.40
2019-02-28T07:28:11.622Z,8.50
2019-02-28T07:30:39.152Z,8.50
2019-02-28T07:33:10.489Z,8.50
2019-02-28T07:35:55.177Z,8.50
2019-02-28T07:41:07.854Z,8.40
2019-02-28T07:43:35.159Z,8.70
2019-02-28T07:46:04.518Z,8.70
2019-02-28T07:48:31.889Z,8.70
2019-02-28T07:50:59.350Z,8.70
2019-02-28T07:53:26.690Z,8.70
2019-02-28T07:55:54.066Z,8.70
2019-02-28T07:58:21.519Z,8.70
2019-02-28T08:00:52.613Z,8.80
2019-02-28T08:03:18.184Z,8.80
2019-02-28T08:05:45.550Z,8.90
2019-02-28T08:08:12.901Z,9.00
2019-02-28T08:10:40.260Z,9.00
2019-02-28T08:13:07.612Z,9.10
2019-02-28T08:15:34.930Z,9.20
2019-02-28T08:18:02.691Z,9.20
2019-02-28T08:20:49.468Z,9.20
2019-02-28T08:23:30.101Z,8.50
2019-02-28T08:26:00.144Z,9.20
2019-02-28T08:28:29.598Z,9.30
2019-02-28T08:30:57.183Z,9.40
2019-02-28T08:33:24.482Z,9.40
2019-02-28T08:35:51.819Z,9.50
2019-02-28T08:38:19.249Z,9.50
2019-02-28T08:40:50.494Z,9.50
2019-02-28T08:43:35.354Z,9.60
2019-02-28T08:46:02.933Z,8.90
2019-02-28T08:48:32.398Z,9.30
2019-02-28T08:51:19.042Z,9.60
2019-02-28T08:56:32.257Z,9.50
2019-02-28T08:58:59.803Z,9.80
2019-02-28T09:01:27.194Z,9.80
2019-02-28T09:03:54.609Z,9.80
2019-02-28T09:06:22.046Z,9.80
2019-02-28T09:08:49.374Z,9.80
2019-02-28T09:11:20.607Z,9.80
2019-02-28T09:13:46.011Z,9.90
2019-02-28T09:16:13.335Z,9.90
2019-02-28T09:18:40.844Z,9.90
2019-02-28T09:21:08.270Z,9.90
2019-02-28T09:23:37.547Z,9.90
2019-02-28T09:26:28.301Z,9.90
2019-02-28T09:28:56.728Z,9.50
2019-02-28T09:31:33.075Z,10.00
2019-02-28T09:34:00.511Z,9.70
2019-02-28T09:36:47.800Z,10.10
2019-02-28T09:39:16.380Z,9.70
2019-02-28T09:41:44.451Z,10.10
2019-02-28T09:44:11.780Z,10.10
2019-02-28T09:46:39.094Z,10.10
2019-02-28T09:49:12.023Z,10.20
2019-02-28T09:51:35.827Z,10.30
2019-02-28T09:54:03.222Z,10.30
2019-02-28T09:56:50.020Z,10.30
2019-02-28T09:59:17.355Z,10.40
2019-02-28T10:01:44.700Z,10.40
2019-02-28T10:04:12.277Z,10.50
2019-02-28T10:06:39.658Z,10.60
2019-02-28T10:09:08.780Z,10.70
2019-02-28T10:11:36.504Z,10.70
2019-02-28T10:14:25.681Z,10.80
2019-02-28T10:16:53.331Z,10.50
2019-02-28T10:19:45.445Z,11.20
2019-02-28T10:22:12.890Z,10.60
2019-02-28T10:24:40.507Z,11.50
2019-02-28T10:27:07.935Z,11.60
2019-02-28T10:29:35.279Z,11.80
2019-02-28T10:32:02.696Z,11.90
2019-02-28T10:34:30.111Z,11.90
2019-02-28T10:36:57.472Z,12.10
2019-02-28T10:39:24.815Z,12.10
2019-02-28T10:41:52.133Z,12.20
2019-02-28T10:44:19.488Z,12.20
2019-02-28T10:46:46.783Z,12.30
2019-02-28T10:49:14.202Z,12.50
2019-02-28T10:51:44.673Z,12.60
2019-02-28T10:54:11.311Z,12.70
2019-02-28T10:56:40.091Z,12.70
2019-02-28T10:59:07.442Z,12.70
2019-02-28T11:01:34.832Z,12.70
2019-02-28T11:04:04.529Z,12.80
2019-02-28T11:06:37.276Z,12.80
2019-02-28T11:09:05.043Z,12.90
2019-02-28T11:11:32.344Z,12.90
2019-02-28T11:13:59.671Z,12.80
2019-02-28T11:16:26.984Z,12.80
2019-02-28T11:18:54.300Z,12.70
2019-02-28T11:21:41.088Z,12.60
2019-02-28T11:24:08.412Z,12.30
2019-02-28T11:26:35.722Z,12.60
2019-02-28T11:29:22.699Z,12.50
2019-02-28T11:31:50.558Z,12.10
2019-02-28T11:34:19.295Z,12.30
2019-02-28T11:36:46.722Z,12.40
2019-02-28T11:39:18.566Z,12.40
2019-02-28T11:41:45.966Z,12.40
2019-02-28T11:44:13.282Z,12.30
2019-02-28T11:46:40.730Z,12.20
2019-02-28T11:49:08.141Z,12.20
2019-02-28T11:51:35.454Z,12.10
2019-02-28T11:54:02.815Z,11.90
2019-02-28T11:56:49.720Z,12.00
2019-02-28T11:59:17.075Z,11.70
2019-02-28T12:01:47.499Z,11.90
2019-02-28T12:04:13.638Z,11.80
2019-02-28T12:06:40.982Z,11.90
2019-02-28T12:09:08.392Z,11.90
2019-02-28T12:11:36.478Z,11.80
2019-02-28T12:14:06.274Z,11.80
2019-02-28T12:16:35.230Z,11.80
2019-02-28T12:19:23.351Z,11.90
2019-02-28T12:22:12.099Z,11.40
2019-02-28T12:24:39.595Z,11.90
2019-02-28T12:27:06.962Z,12.10
2019-02-28T12:29:34.455Z,12.10
2019-02-28T12:32:21.327Z,12.00
2019-02-28T12:34:48.749Z,11.40
2019-02-28T12:37:16.055Z,12.00
2019-02-28T12:39:43.375Z,12.00
2019-02-28T12:42:10.699Z,12.00
2019-02-28T12:44:38.298Z,11.90
2019-02-28T12:47:06.456Z,11.90
2019-02-28T12:49:34.847Z,11.90
2019-02-28T12:52:02.199Z,11.80
2019-02-28T12:54:30.291Z,11.90
2019-02-28T12:56:59.226Z,12.00
2019-02-28T12:59:26.553Z,12.00
2019-02-28T13:01:53.896Z,12.00
2019-02-28T13:04:21.195Z,12.10
2019-02-28T13:06:48.569Z,12.10
2019-02-28T13:09:16.999Z,12.30
2019-02-28T13:12:08.060Z,12.30
2019-02-28T13:14:36.779Z,11.90
2019-02-28T13:17:03.243Z,12.70
2019-02-28T13:19:30.629Z,12.80
2019-02-28T13:21:58.007Z,12.90
2019-02-28T13:24:26.006Z,13.00
2019-02-28T13:26:53.439Z,13.00
2019-02-28T13:29:22.254Z,13.00
2019-02-28T13:31:49.837Z,12.90
2019-02-28T13:34:17.156Z,12.90
2019-02-28T13:36:44.592Z,13.10
2019-02-28T13:39:11.953Z,13.20
2019-02-28T13:41:39.746Z,13.20
2019-02-28T13:44:07.193Z,13.10
2019-02-28T13:46:34.618Z,12.70
2019-02-28T13:49:08.490Z,12.80
2019-02-28T13:51:42.136Z,12.10
2019-02-28T13:54:07.321Z,12.60
2019-02-28T13:56:34.917Z,12.50
2019-02-28T13:59:02.306Z,12.50
2019-02-28T14:01:29.680Z,12.40
2019-02-28T14:03:57.120Z,12.30
2019-02-28T14:06:43.921Z,12.30
2019-02-28T14:09:11.371Z,11.40
2019-02-28T14:11:41.794Z,12.20
2019-02-28T14:14:08.028Z,12.20
2019-02-28T14:16:35.436Z,12.20
2019-02-28T14:19:02.887Z,12.10
2019-02-28T14:21:49.679Z,11.80
2019-02-28T14:24:17.052Z,11.60
2019-02-28T14:26:46.532Z,12.20
2019-02-28T14:29:13.634Z,12.20
2019-02-28T14:31:41.058Z,12.20
2019-02-28T14:34:08.423Z,12.20
2019-02-28T14:36:35.776Z,12.20
2019-02-28T14:39:04.743Z,12.20
2019-02-28T14:41:33.687Z,12.20
2019-02-28T14:44:01.019Z,12.20
2019-02-28T14:46:28.324Z,12.10
2019-02-28T14:48:55.634Z,12.20
2019-02-28T14:51:25.425Z,12.20
2019-02-28T14:53:52.302Z,12.20
2019-02-28T14:56:19.611Z,12.20
2019-02-28T14:58:46.932Z,12.20
2019-02-28T15:01:16.777Z,12.10
2019-02-28T15:03:43.492Z,12.10
2019-02-28T15:06:10.827Z,12.10
2019-02-28T15:08:57.751Z,12.10
2019-02-28T15:14:10.501Z,11.60
2019-02-28T15:16:57.372Z,12.00
2019-02-28T15:19:25.404Z,11.20
2019-02-28T15:21:53.444Z,11.90
2019-02-28T15:24:20.830Z,11.90
2019-02-28T15:27:07.665Z,11.90
2019-02-28T15:29:55.497Z,11.80
2019-02-28T15:32:24.649Z,11.80
2019-02-28T15:34:52.006Z,11.80
2019-02-28T15:37:19.354Z,11.80
2019-02-28T15:39:49.801Z,11.80
2019-02-28T15:42:35.375Z,11.80
2019-02-28T15:45:04.131Z,11.20
2019-02-28T15:47:32.192Z,12.30
2019-02-28T15:49:59.538Z,11.70
2019-02-28T15:52:26.937Z,11.80
2019-02-28T15:54:56.899Z,11.70
2019-02-28T15:57:23.533Z,11.70
2019-02-28T15:59:50.823Z,11.70
2019-02-28T16:02:18.246Z,11.70
2019-02-28T16:04:45.661Z,11.70
2019-02-28T16:07:13.068Z,11.60
2019-02-28T16:09:40.483Z,11.60
2019-02-28T16:12:27.318Z,11.60
2019-02-28T16:15:12.591Z,11.10
2019-02-28T16:17:53.122Z,11.20
2019-02-28T16:20:21.432Z,11.20
2019-02-28T16:22:52.127Z,11.50
2019-02-28T16:25:23.655Z,11.50
2019-02-28T16:27:50.943Z,11.50
2019-02-28T16:30:18.297Z,11.50
2019-02-28T16:32:49.007Z,11.50
2019-02-28T16:35:15.498Z,11.50
2019-02-28T16:37:42.982Z,11.50
2019-02-28T16:40:12.004Z,11.50
2019-02-28T16:42:39.432Z,11.50
2019-02-28T16:45:11.029Z,11.50
2019-02-28T16:47:38.358Z,11.50
2019-02-28T16:50:06.211Z,11.40
2019-02-28T16:52:33.603Z,11.40
2019-02-28T16:55:01.044Z,11.40
2019-02-28T16:57:28.355Z,11.40
2019-02-28T16:59:55.773Z,11.40
2019-02-28T17:02:42.584Z,11.40
2019-02-28T17:05:10.076Z,11.30
2019-02-28T17:07:37.385Z,11.40
2019-02-28T17:10:30.192Z,11.40
2019-02-28T17:13:17.012Z,10.60
2019-02-28T17:16:02.762Z,11.30
2019-02-28T17:18:31.553Z,11.20
2019-02-28T17:20:59.713Z,11.30
2019-02-28T17:23:46.886Z,11.20
2019-02-28T17:26:14.642Z,11.10
2019-02-28T17:29:11.702Z,10.80
2019-02-28T17:31:48.302Z,10.70
2019-02-28T17:34:17.694Z,11.20
2019-02-28T17:36:47.601Z,11.30
2019-02-28T17:39:15.919Z,11.30
2019-02-28T17:41:43.470Z,11.30
2019-02-28T17:45:01.480Z,11.30
2019-02-28T17:48:31.530Z,11.30
2019-02-28T17:51:08.485Z,11.30
2019-02-28T17:54:17.185Z,11.30
2019-02-28T17:57:26.145Z,11.20
2019-02-28T18:00:37.058Z,11.30
2019-02-28T18:06:40.348Z,11.10
2019-02-28T18:09:17.324Z,11.20
2019-02-28T18:12:40.670Z,11.20
2019-02-28T18:15:45.717Z,11.20
2019-02-28T18:18:30.296Z,11.00
2019-02-28T18:21:47.326Z,11.20
2019-02-28T18:24:28.087Z,11.20
2019-02-28T18:27:33.207Z,11.20
2019-02-28T18:30:37.973Z,11.10
2019-02-28T18:33:06.720Z,10.50
2019-02-28T18:35:55.723Z,11.20
2019-02-28T18:41:08.379Z,10.90
2019-02-28T18:43:55.191Z,11.20
2019-02-28T18:46:22.720Z,11.20
2019-02-28T18:48:51.300Z,11.10
2019-02-28T18:51:19.274Z,11.20
2019-02-28T18:53:47.178Z,11.20
2019-02-28T18:56:14.596Z,11.10
2019-02-28T18:58:41.987Z,11.10
2019-02-28T19:01:09.335Z,11.10
2019-02-28T19:03:36.687Z,11.10
2019-02-28T19:06:23.792Z,11.10
2019-02-28T19:08:51.230Z,10.70
2019-02-28T19:11:18.653Z,11.10
2019-02-28T19:13:46.004Z,11.10
2019-02-28T19:16:32.961Z,10.80
2019-02-28T19:19:00.266Z,10.50
2019-02-28T19:21:27.619Z,11.10
2019-02-28T19:23:54.962Z,11.10
2019-02-28T19:26:22.369Z,11.10
2019-02-28T19:28:49.777Z,11.10
2019-02-28T19:31:17.143Z,11.10
2019-02-28T19:33:44.519Z,11.10
2019-02-28T19:36:11.855Z,11.10
2019-02-28T19:38:39.200Z,11.20
2019-02-28T19:41:06.647Z,11.10
2019-02-28T19:43:33.954Z,11.10
2019-02-28T19:46:01.356Z,11.10
2019-02-28T19:48:28.840Z,11.10
2019-02-28T19:50:56.347Z,11.10
2019-02-28T19:53:23.727Z,11.20
2019-02-28T19:55:51.118Z,11.10
2019-02-28T19:58:18.569Z,11.10
2019-02-28T20:00:46.068Z,11.10
2019-02-28T20:03:13.476Z,11.00
2019-02-28T20:05:40.810Z,11.10
2019-02-28T20:08:08.136Z,11.10
2019-02-28T20:10:35.450Z,11.10
2019-02-28T20:13:03.532Z,11.10
2019-02-28T20:15:33.171Z,11.10
2019-02-28T20:18:02.224Z,11.10
2019-02-28T20:20:29.554Z,11.10
2019-02-28T20:22:57.245Z,11.10
2019-02-28T20:25:24.665Z,11.10
2019-02-28T20:27:52.087Z,11.10
2019-02-28T20:30:20.759Z,11.00
2019-02-28T20:32:48.087Z,11.00
2019-02-28T20:35:15.382Z,11.00
2019-02-28T20:38:02.153Z,11.00
2019-02-28T20:40:29.496Z,10.40
2019-02-28T20:42:56.826Z,10.90
2019-02-28T20:45:24.239Z,10.90
2019-02-28T20:47:51.618Z,10.90
2019-02-28T20:50:22.464Z,10.90
2019-02-28T20:52:50.131Z,10.90
2019-02-28T20:55:17.480Z,10.90
2019-02-28T20:58:04.291Z,10.90
2019-02-28T21:00:31.710Z,10.30
2019-02-28T21:02:59.111Z,10.90
2019-02-28T21:05:26.520Z,10.90
2019-02-28T21:07:53.967Z,10.90
2019-02-28T21:10:21.344Z,10.90
2019-02-28T21:12:48.744Z,10.90
2019-02-28T21:15:16.222Z,10.90
2019-02-28T21:17:43.636Z,10.90
2019-02-28T21:20:30.707Z,10.90
2019-02-28T21:22:58.152Z,10.70
2019-02-28T21:25:25.642Z,10.80
2019-02-28T21:27:53.237Z,10.70
2019-02-28T21:30:20.958Z,10.80
2019-02-28T21:32:48.296Z,10.80
2019-02-28T21:35:16.034Z,10.70
2019-02-28T21:37:43.559Z,10.70
2019-02-28T21:40:11.538Z,10.80
2019-02-28T21:42:54.897Z,10.80
2019-02-28T21:45:22.645Z,10.60
2019-02-28T21:47:49.961Z,10.70
2019-02-28T21:50:17.289Z,10.70
2019-02-28T21:52:44.815Z,10.70
2019-02-28T21:55:12.479Z,10.70
2019-02-28T21:57:39.939Z,10.70
2019-02-28T22:00:10.975Z,10.80
2019-02-28T22:02:38.395Z,10.70
2019-02-28T22:05:13.400Z,10.70
2019-02-28T22:07:40.791Z,10.30
2019-02-28T22:10:08.983Z,10.70
2019-02-28T22:12:36.458Z,10.70
2019-02-28T22:15:04.605Z,10.70
2019-02-28T22:17:31.958Z,10.70
2019-02-28T22:19:59.346Z,10.70
2019-02-28T22:25:18.040Z,10.30
2019-02-28T22:27:45.394Z,10.50
2019-02-28T22:30:49.291Z,10.50
2019-02-28T22:33:28.071Z,10.60
2019-02-28T22:35:56.783Z,10.50
2019-02-28T22:38:24.207Z,10.50
2019-02-28T22:40:51.544Z,10.50
2019-02-28T22:43:18.911Z,10.40
2019-02-28T22:45:46.271Z,10.30
2019-02-28T22:48:33.339Z,10.40
2019-02-28T22:51:00.681Z,9.50
2019-02-28T22:53:28.087Z,10.30
2019-02-28T22:56:14.870Z,10.30
2019-02-28T22:58:42.327Z,9.90
2019-02-28T23:01:11.768Z,10.30
2019-02-28T23:03:39.276Z,10.30
2019-02-28T23:06:06.643Z,10.30
2019-02-28T23:08:34.089Z,10.30
2019-02-28T23:11:01.452Z,10.30
2019-02-28T23:13:28.858Z,10.20
2019-02-28T23:15:56.287Z,10.30
2019-02-28T23:18:23.616Z,10.30
2019-02-28T23:20:50.935Z,10.30
2019-02-28T23:23:18.226Z,10.20
2019-02-28T23:25:45.749Z,10.20
2019-02-28T23:28:15.357Z,10.20
2019-02-28T23:31:25.435Z,10.20
2019-02-28T23:34:01.155Z,10.20
2019-02-28T23:36:22.108Z,10.20
2019-02-28T23:38:49.517Z,10.10
2019-02-28T23:41:16.912Z,10.10
2019-02-28T23:44:03.788Z,10.10
2019-02-28T23:46:31.118Z,9.80
2019-02-28T23:48:58.479Z,10.10
2019-02-28T23:51:25.882Z,10.10
2019-02-28T23:53:53.212Z,10.10
2019-02-28T23:56:20.526Z,10.00
2019-02-28T23:58:47.960Z,10.00
